createdAt,value
2023-02-05T00:00:39.123Z,87.45
2023-02-05T00:03:06.892Z,86.92
2023-02-05T00:05:34.959Z,85.64
2023-02-05T00:08:03.006Z,86.28
2023-02-05T00:10:32.139Z,88.08
2023-02-05T00:13:00.085Z,89.70
2023-02-05T00:15:27.852Z,91.36
2023-02-05T00:17:55.640Z,91.07
2023-02-05T00:20:23.382Z,90.61
2023-02-05T00:22:51.134Z,89.22
2023-02-05T00:25:19.155Z,89.57
2023-02-05T00:27:48.257Z,92.85
2023-02-05T00:30:16.024Z,92.40
2023-02-05T00:32:43.928Z,91.96
2023-02-05T00:35:11.726Z,91.44
2023-02-05T00:37:39.522Z,91.28
2023-02-05T00:40:08.125Z,90.38
2023-02-05T00:42:38.250Z,90.84
2023-02-05T00:45:08.532Z,90.71
2023-02-05T00:47:36.325Z,92.03
2023-02-05T00:50:06.812Z,92.66
2023-02-05T00:52:34.671Z,92.88
2023-02-05T00:55:02.484Z,91.26
2023-02-05T00:57:30.250Z,91.98
2023-02-05T00:59:57.987Z,92.33
2023-02-05T01:02:27.399Z,92.82
2023-02-05T01:04:56.153Z,92.09
2023-02-05T01:07:23.962Z,90.97
2023-02-05T01:09:51.805Z,90.33
2023-02-05T01:12:21.913Z,89.64
2023-02-05T01:14:49.700Z,88.83
2023-02-05T01:17:17.510Z,89.20
2023-02-05T01:19:46.718Z,87.72
2023-02-05T01:22:14.528Z,87.54
2023-02-05T01:24:42.270Z,85.59
2023-02-05T01:27:10.027Z,85.29
2023-02-05T01:29:37.799Z,85.47
2023-02-05T01:32:06.241Z,86.27
2023-02-05T01:34:34.022Z,86.55
2023-02-05T01:37:03.175Z,85.76
2023-02-05T01:39:30.913Z,87.04
2023-02-05T01:41:58.801Z,86.76
2023-02-05T01:44:26.725Z,86.87
2023-02-05T01:46:56.353Z,86.07
2023-02-05T01:49:29.138Z,86.69
2023-02-05T01:52:00.835Z,86.69
2023-02-05T01:54:31.972Z,87.71
2023-02-05T01:57:04.656Z,89.22
2023-02-05T01:59:36.956Z,90.40
2023-02-05T02:02:07.560Z,89.57
2023-02-05T02:04:40.292Z,89.26
2023-02-05T02:07:10.157Z,88.54
2023-02-05T02:09:40.938Z,90.50
2023-02-05T02:12:09.685Z,90.15
2023-02-05T02:14:38.975Z,90.87
2023-02-05T02:17:08.400Z,90.72
2023-02-05T02:19:41.955Z,90.09
2023-02-05T02:22:39.153Z,89.22
2023-02-05T02:25:34.104Z,88.02
2023-02-05T02:28:10.960Z,86.86
2023-02-05T02:30:43.436Z,87.91
2023-02-05T02:33:17.816Z,87.07
2023-02-05T02:35:49.622Z,89.02
2023-02-05T02:38:23.535Z,88.81
2023-02-05T02:40:55.608Z,90.65
2023-02-05T02:43:33.071Z,90.49
2023-02-05T02:46:05.150Z,90.37
2023-02-05T02:48:36.118Z,91.74
2023-02-05T02:51:10.370Z,90.79
2023-02-05T02:53:42.432Z,89.33
2023-02-05T02:56:13.300Z,89.36
2023-02-05T02:58:47.066Z,88.51
2023-02-05T03:01:18.545Z,87.50
2023-02-05T03:03:53.342Z,85.40
2023-02-05T03:06:22.474Z,84.72
2023-02-05T03:08:55.586Z,85.20
2023-02-05T03:11:24.140Z,83.80
2023-02-05T03:13:53.872Z,84.16
2023-02-05T03:16:26.612Z,85.51
2023-02-05T03:18:58.139Z,84.90
2023-02-05T03:21:31.576Z,85.47
2023-02-05T03:23:59.474Z,86.45
2023-02-05T03:26:30.235Z,86.92
2023-02-05T03:29:11.529Z,87.89
2023-02-05T03:31:52.740Z,87.79
2023-02-05T03:34:32.651Z,86.68
2023-02-05T03:37:09.332Z,85.97
2023-02-05T03:39:50.282Z,84.33
2023-02-05T03:42:31.147Z,84.92
2023-02-05T03:45:22.306Z,84.27
2023-02-05T03:48:21.579Z,84.50
2023-02-05T03:50:56.934Z,84.45
2023-02-05T03:53:37.143Z,86.22
2023-02-05T03:56:13.315Z,86.38
2023-02-05T03:58:44.361Z,85.69
2023-02-05T04:01:13.208Z,85.22
2023-02-05T04:03:44.512Z,85.17
2023-02-05T04:06:13.761Z,84.41
2023-02-05T04:08:43.932Z,84.42
2023-02-05T04:11:12.481Z,83.72
2023-02-05T04:13:41.218Z,83.15
2023-02-05T04:16:11.930Z,82.69
2023-02-05T04:18:40.296Z,82.37
2023-02-05T04:21:09.573Z,82.20
2023-02-05T04:23:40.888Z,81.66
2023-02-05T04:26:12.777Z,81.74
2023-02-05T04:28:47.088Z,81.58
2023-02-05T04:31:14.956Z,82.47
2023-02-05T04:33:43.928Z,82.36
2023-02-05T04:36:15.555Z,81.42
2023-02-05T04:38:44.085Z,81.31
2023-02-05T04:41:11.947Z,83.84
2023-02-05T04:43:39.656Z,86.20
2023-02-05T04:46:07.613Z,87.08
2023-02-05T04:48:36.272Z,88.17
2023-02-05T04:51:07.721Z,88.47
2023-02-05T04:53:36.925Z,88.30
2023-02-05T04:56:08.198Z,87.46
2023-02-05T04:58:36.032Z,89.23
2023-02-05T05:01:04.312Z,89.15
2023-02-05T05:03:32.642Z,90.42
2023-02-05T05:06:05.230Z,89.11
2023-02-05T05:08:32.933Z,88.44
2023-02-05T05:11:07.434Z,88.48
2023-02-05T05:13:35.415Z,88.51
2023-02-05T05:16:04.024Z,87.56
2023-02-05T05:18:32.128Z,88.88
2023-02-05T05:21:00.039Z,89.24
2023-02-05T05:23:27.764Z,88.32
2023-02-05T05:25:55.608Z,90.07
2023-02-05T05:28:24.767Z,91.10
2023-02-05T05:30:52.525Z,91.45
2023-02-05T05:33:20.254Z,93.35
2023-02-05T05:35:48.113Z,93.82
2023-02-05T05:38:15.833Z,92.47
2023-02-05T05:41:00.942Z,91.50
2023-02-05T05:43:48.079Z,92.24
2023-02-05T05:46:22.810Z,91.56
2023-02-05T05:48:51.857Z,91.27
2023-02-05T05:51:20.033Z,90.71
2023-02-05T05:53:48.223Z,91.53
2023-02-05T05:56:16.262Z,90.03
2023-02-05T05:58:45.838Z,89.98
2023-02-05T06:01:14.894Z,89.42
2023-02-05T06:03:42.624Z,89.61
2023-02-05T06:06:13.070Z,90.53
2023-02-05T06:08:40.928Z,91.62
2023-02-05T06:11:08.789Z,92.80
2023-02-05T06:13:36.605Z,91.95
2023-02-05T06:16:06.375Z,92.17
2023-02-05T06:18:34.187Z,92.05
2023-02-05T06:21:03.245Z,91.77
2023-02-05T06:23:33.386Z,92.12
2023-02-05T06:26:01.119Z,92.29
2023-02-05T06:28:28.840Z,91.49
2023-02-05T06:30:56.629Z,90.53
2023-02-05T06:33:25.897Z,90.79
2023-02-05T06:35:53.652Z,90.05
2023-02-05T06:38:21.431Z,90.07
2023-02-05T06:40:49.909Z,88.74
2023-02-05T06:43:17.575Z,89.59
2023-02-05T06:45:45.464Z,90.58
2023-02-05T06:48:13.179Z,90.56
2023-02-05T06:50:42.357Z,89.98
2023-02-05T06:53:11.854Z,89.41
2023-02-05T06:55:40.093Z,88.78
2023-02-05T06:58:08.339Z,89.13
2023-02-05T07:00:36.877Z,89.33
2023-02-05T07:03:05.191Z,89.20
2023-02-05T07:05:34.798Z,88.67
2023-02-05T07:08:06.606Z,88.50
2023-02-05T07:10:34.537Z,88.35
2023-02-05T07:13:03.586Z,88.12
2023-02-05T07:15:33.020Z,87.93
2023-02-05T07:18:01.016Z,88.12
2023-02-05T07:20:28.713Z,87.64
2023-02-05T07:22:56.554Z,86.64
2023-02-05T07:25:25.670Z,87.65
2023-02-05T07:27:55.780Z,86.84
2023-02-05T07:30:23.687Z,86.79
2023-02-05T07:32:51.533Z,86.91
2023-02-05T07:35:19.240Z,87.21
2023-02-05T07:37:47.057Z,86.69
2023-02-05T07:40:16.962Z,87.26
2023-02-05T07:42:46.120Z,87.91
2023-02-05T07:45:14.181Z,87.55
2023-02-05T07:47:42.003Z,87.08
2023-02-05T07:50:10.190Z,86.28
2023-02-05T07:52:37.976Z,86.50
2023-02-05T07:55:06.242Z,86.73
2023-02-05T07:57:34.040Z,86.97
2023-02-05T08:00:03.171Z,86.83
2023-02-05T08:02:40.158Z,87.06
2023-02-05T08:05:08.231Z,86.51
2023-02-05T08:07:37.361Z,86.63
2023-02-05T08:10:05.645Z,86.42
2023-02-05T08:12:33.427Z,86.36
2023-02-05T08:15:01.224Z,85.35
2023-02-05T08:17:30.272Z,85.54
2023-02-05T08:19:58.272Z,85.40
2023-02-05T08:22:26.297Z,85.06
2023-02-05T08:24:53.985Z,84.82
2023-02-05T08:27:21.689Z,85.05
2023-02-05T08:29:49.793Z,84.64
2023-02-05T08:32:17.808Z,85.01
2023-02-05T08:34:46.943Z,85.20
2023-02-05T08:37:14.746Z,84.79
2023-02-05T08:39:42.525Z,84.76
2023-02-05T08:42:10.222Z,84.97
2023-02-05T08:44:37.885Z,84.29
2023-02-05T08:47:05.682Z,84.34
2023-02-05T08:49:33.417Z,84.20
2023-02-05T08:52:02.683Z,83.89
2023-02-05T08:54:30.723Z,81.49
2023-02-05T08:56:58.523Z,81.40
2023-02-05T08:59:26.283Z,81.41
2023-02-05T09:01:54.095Z,81.64
2023-02-05T09:04:23.433Z,81.57
2023-02-05T09:06:51.427Z,81.75
2023-02-05T09:09:23.709Z,81.97
2023-02-05T09:11:51.419Z,81.48
2023-02-05T09:14:19.351Z,82.52
2023-02-05T09:16:47.168Z,81.84
2023-02-05T09:19:14.947Z,82.56
2023-02-05T09:21:42.884Z,82.59
2023-02-05T09:24:10.759Z,82.33
2023-02-05T09:26:39.862Z,83.26
2023-02-05T09:29:07.559Z,84.46
2023-02-05T09:31:35.418Z,85.18
2023-02-05T09:34:04.242Z,86.36
2023-02-05T09:36:32.041Z,88.54
2023-02-05T09:39:13.425Z,88.45
2023-02-05T09:41:54.365Z,88.29
2023-02-05T09:44:41.631Z,87.98
2023-02-05T09:47:16.644Z,88.70
2023-02-05T09:49:53.842Z,88.80
2023-02-05T09:52:23.669Z,88.06
2023-02-05T09:54:55.324Z,87.83
2023-02-05T09:57:33.616Z,88.68
2023-02-05T10:00:01.654Z,87.95
2023-02-05T10:02:36.197Z,88.25
2023-02-05T10:05:07.033Z,87.79
2023-02-05T10:07:43.564Z,88.46
2023-02-05T10:10:24.543Z,88.06
2023-02-05T10:13:24.217Z,88.44
2023-02-05T10:16:10.725Z,87.65
2023-02-05T10:18:52.434Z,87.88
2023-02-05T10:21:36.608Z,89.29
2023-02-05T10:24:29.659Z,89.68
2023-02-05T10:27:07.423Z,89.21
2023-02-05T10:29:44.638Z,89.16
2023-02-05T10:32:21.167Z,89.21
2023-02-05T10:34:59.745Z,89.93
2023-02-05T10:37:37.697Z,90.05
2023-02-05T10:40:14.160Z,89.92
2023-02-05T10:42:47.563Z,89.76
2023-02-05T10:45:22.055Z,90.13
2023-02-05T10:48:01.912Z,90.39
2023-02-05T10:50:37.753Z,90.15
2023-02-05T10:53:05.617Z,90.42
2023-02-05T10:55:33.689Z,90.67
2023-02-05T10:58:08.710Z,89.67
2023-02-05T11:00:38.064Z,91.04
2023-02-05T11:03:07.039Z,90.07
2023-02-05T11:05:39.667Z,90.92
2023-02-05T11:08:35.172Z,90.59
2023-02-05T11:11:06.282Z,90.46
2023-02-05T11:13:49.710Z,89.86
2023-02-05T11:16:18.917Z,89.69
2023-02-05T11:18:56.186Z,90.75
2023-02-05T11:21:24.111Z,89.90
2023-02-05T11:23:57.037Z,90.47
2023-02-05T11:26:28.014Z,91.12
2023-02-05T11:28:55.869Z,90.82
2023-02-05T11:31:31.155Z,90.89
2023-02-05T11:34:12.506Z,91.07
2023-02-05T11:36:49.922Z,90.76
2023-02-05T11:39:29.786Z,90.08
2023-02-05T11:41:58.666Z,88.75
2023-02-05T11:44:30.358Z,89.16
2023-02-05T11:47:02.755Z,89.78
2023-02-05T11:49:35.811Z,92.55
2023-02-05T11:52:10.531Z,92.26
2023-02-05T11:54:40.220Z,92.76
2023-02-05T11:57:26.895Z,91.94
2023-02-05T11:59:56.489Z,91.34
2023-02-05T12:02:35.276Z,89.86
2023-02-05T12:05:13.315Z,92.02
2023-02-05T12:07:46.193Z,92.00
2023-02-05T12:10:17.796Z,90.98
2023-02-05T12:12:53.772Z,90.09
2023-02-05T12:15:27.585Z,89.35
2023-02-05T12:18:05.653Z,91.37
2023-02-05T12:20:42.172Z,92.87
2023-02-05T12:23:28.955Z,93.71
2023-02-05T12:26:15.393Z,93.88
2023-02-05T12:28:55.025Z,94.30
2023-02-05T12:31:37.731Z,94.08
2023-02-05T12:34:24.465Z,93.81
2023-02-05T12:37:10.486Z,93.60
2023-02-05T12:39:47.433Z,93.74
2023-02-05T12:42:31.430Z,92.97
2023-02-05T12:45:20.884Z,92.11
2023-02-05T12:48:08.097Z,91.70
2023-02-05T12:50:55.041Z,92.16
2023-02-05T12:53:34.643Z,92.39
2023-02-05T12:56:22.193Z,91.90
2023-02-05T12:58:57.120Z,92.72
2023-02-05T13:01:35.048Z,92.70
2023-02-05T13:04:03.493Z,92.48
2023-02-05T13:06:39.244Z,92.65
2023-02-05T13:09:15.978Z,92.34
2023-02-05T13:11:52.187Z,92.82
2023-02-05T13:14:23.636Z,93.24
2023-02-05T13:16:56.570Z,92.86
2023-02-05T13:19:30.807Z,94.03
2023-02-05T13:22:22.646Z,93.54
2023-02-05T13:25:11.085Z,92.64
2023-02-05T13:28:00.716Z,92.73
2023-02-05T13:30:35.901Z,92.13
2023-02-05T13:33:07.471Z,93.27
2023-02-05T13:35:58.803Z,94.25
2023-02-05T13:38:45.835Z,93.92
2023-02-05T13:41:41.709Z,94.04
2023-02-05T13:44:32.631Z,94.48
2023-02-05T13:47:28.208Z,94.07
2023-02-05T13:50:23.169Z,93.94
2023-02-05T13:53:29.949Z,93.11
2023-02-05T13:56:36.458Z,92.59
2023-02-05T13:59:06.627Z,92.52
2023-02-05T14:01:41.942Z,91.89
2023-02-05T14:04:21.158Z,92.30
2023-02-05T14:06:58.340Z,91.12
2023-02-05T14:09:35.617Z,90.52
2023-02-05T14:12:11.088Z,89.61
2023-02-05T14:14:41.107Z,90.09
2023-02-05T14:17:48.301Z,89.97
2023-02-05T14:20:34.598Z,90.11
2023-02-05T14:23:04.236Z,90.63
2023-02-05T14:26:11.191Z,89.64
2023-02-05T14:28:49.588Z,90.17
2023-02-05T14:31:58.470Z,89.46
2023-02-05T14:34:46.206Z,90.60
2023-02-05T14:37:27.684Z,90.72
2023-02-05T14:39:55.470Z,91.03
2023-02-05T14:42:23.612Z,90.76
2023-02-05T14:44:57.460Z,88.92
2023-02-05T14:47:29.709Z,89.40
2023-02-05T14:50:04.041Z,89.76
2023-02-05T14:52:36.231Z,89.56
2023-02-05T14:55:19.822Z,89.13
2023-02-05T14:57:51.605Z,90.31
2023-02-05T15:00:33.644Z,89.36
2023-02-05T15:03:25.170Z,89.65
2023-02-05T15:05:58.862Z,89.83
2023-02-05T15:08:45.231Z,88.93
2023-02-05T15:11:21.383Z,89.12
2023-02-05T15:14:44.510Z,89.09
2023-02-05T15:17:43.239Z,89.20
2023-02-05T15:20:24.941Z,89.32
2023-02-05T15:22:57.415Z,90.25
2023-02-05T15:25:39.560Z,90.98
2023-02-05T15:28:22.229Z,90.96
2023-02-05T15:31:03.141Z,90.04
2023-02-05T15:33:41.156Z,90.09
2023-02-05T15:36:27.965Z,90.15
2023-02-05T15:39:23.852Z,90.60
2023-02-05T15:41:54.859Z,90.54
2023-02-05T15:44:29.459Z,89.82
2023-02-05T15:46:59.912Z,90.84
2023-02-05T15:49:36.060Z,91.37
2023-02-05T15:52:07.355Z,91.06
2023-02-05T15:54:37.456Z,91.42
2023-02-05T15:57:06.997Z,91.97
2023-02-05T15:59:35.560Z,91.85
2023-02-05T16:02:07.169Z,91.43
2023-02-05T16:04:38.379Z,90.99
2023-02-05T16:07:20.357Z,91.22
2023-02-05T16:09:51.271Z,90.29
2023-02-05T16:12:20.696Z,90.16
2023-02-05T16:14:58.800Z,90.39
2023-02-05T16:17:39.401Z,90.39
2023-02-05T16:20:22.109Z,90.33
2023-02-05T16:22:56.384Z,89.93
2023-02-05T16:25:38.857Z,90.15
2023-02-05T16:28:14.342Z,90.95
2023-02-05T16:30:45.051Z,91.18
2023-02-05T16:33:27.154Z,90.36
2023-02-05T16:36:01.258Z,91.30
2023-02-05T16:38:45.842Z,90.42
2023-02-05T16:41:22.802Z,90.67
2023-02-05T16:43:52.304Z,90.58
2023-02-05T16:46:26.515Z,90.21
2023-02-05T16:48:57.511Z,91.31
2023-02-05T16:51:33.591Z,91.06
2023-02-05T16:54:03.190Z,90.79
2023-02-05T16:56:36.870Z,90.84
2023-02-05T16:59:06.982Z,90.85
2023-02-05T17:01:40.000Z,91.75
2023-02-05T17:04:08.673Z,90.73
2023-02-05T17:06:39.665Z,91.08
2023-02-05T17:09:07.987Z,91.14
2023-02-05T17:11:38.682Z,91.79
2023-02-05T17:14:28.517Z,92.00
2023-02-05T17:16:59.405Z,92.18
2023-02-05T17:19:30.530Z,94.02
2023-02-05T17:22:21.475Z,94.47
2023-02-05T17:24:51.893Z,93.28
2023-02-05T17:27:28.449Z,95.91
2023-02-05T17:29:57.415Z,95.55
2023-02-05T17:32:26.212Z,96.77
2023-02-05T17:34:54.258Z,97.05
2023-02-05T17:37:23.396Z,96.69
2023-02-05T17:39:51.536Z,97.43
2023-02-05T17:42:23.471Z,100.00
2023-02-05T17:44:51.783Z,100.00
2023-02-05T17:47:20.081Z,100.00
2023-02-05T17:49:48.348Z,98.87
2023-02-05T17:52:16.665Z,98.79
2023-02-05T17:54:46.471Z,99.94
2023-02-05T17:57:17.576Z,100.00
2023-02-05T17:59:48.714Z,100.00
2023-02-05T18:02:20.155Z,100.00
2023-02-05T18:04:48.319Z,100.00
2023-02-05T18:07:23.674Z,100.00
2023-02-05T18:09:52.857Z,100.00
2023-02-05T18:12:20.737Z,99.36
2023-02-05T18:14:48.563Z,99.58
2023-02-05T18:17:16.525Z,98.84
2023-02-05T18:19:48.042Z,98.36
2023-02-05T18:22:16.429Z,98.94
2023-02-05T18:24:44.376Z,97.75
2023-02-05T18:27:13.618Z,97.64
2023-02-05T18:29:43.603Z,97.40
2023-02-05T18:32:11.807Z,95.97
2023-02-05T18:34:40.120Z,96.44
2023-02-05T18:37:08.153Z,96.82
2023-02-05T18:39:36.111Z,96.73
2023-02-05T18:42:03.988Z,96.96
2023-02-05T18:44:33.654Z,96.52
2023-02-05T18:47:04.844Z,96.79
2023-02-05T18:49:32.943Z,96.35
2023-02-05T18:52:01.086Z,97.34
2023-02-05T18:54:28.976Z,97.30
2023-02-05T18:56:57.058Z,97.05
2023-02-05T18:59:25.616Z,95.86
2023-02-05T19:01:55.135Z,95.60
2023-02-05T19:04:24.813Z,95.46
2023-02-05T19:06:53.629Z,95.22
2023-02-05T19:09:22.591Z,95.15
2023-02-05T19:11:50.935Z,94.64
2023-02-05T19:14:20.382Z,93.88
2023-02-05T19:16:49.404Z,94.07
2023-02-05T19:19:23.612Z,94.35
2023-02-05T19:21:53.526Z,94.39
2023-02-05T19:24:22.582Z,96.78
2023-02-05T19:26:51.141Z,96.07
2023-02-05T19:29:20.935Z,96.11
2023-02-05T19:31:49.890Z,96.83
2023-02-05T19:34:23.404Z,95.55
2023-02-05T19:36:51.185Z,96.45
2023-02-05T19:39:18.982Z,96.86
2023-02-05T19:41:48.326Z,96.30
2023-02-05T19:44:16.334Z,94.44
2023-02-05T19:46:45.173Z,94.76
2023-02-05T19:49:14.888Z,95.63
2023-02-05T19:51:45.741Z,95.94
2023-02-05T19:54:14.894Z,95.62
2023-02-05T19:56:43.052Z,95.52
2023-02-05T19:59:11.403Z,96.96
2023-02-05T20:01:43.629Z,96.28
2023-02-05T20:04:17.456Z,95.76
2023-02-05T20:06:47.788Z,96.97
2023-02-05T20:09:16.933Z,97.26
2023-02-05T20:11:46.203Z,97.32
2023-02-05T20:14:14.010Z,96.72
2023-02-05T20:16:42.159Z,96.77
2023-02-05T20:19:14.358Z,98.09
2023-02-05T20:21:42.797Z,99.21
2023-02-05T20:24:11.987Z,99.03
2023-02-05T20:26:40.757Z,99.37
2023-02-05T20:29:27.015Z,98.89
2023-02-05T20:31:55.121Z,97.90
2023-02-05T20:34:25.829Z,98.57
2023-02-05T20:36:56.165Z,98.39
2023-02-05T20:39:28.532Z,98.93
2023-02-05T20:41:58.822Z,99.16
2023-02-05T20:44:27.545Z,97.94
2023-02-05T20:46:55.442Z,97.01
2023-02-05T20:49:23.464Z,96.70
2023-02-05T20:51:52.937Z,97.49
2023-02-05T20:54:20.866Z,97.92
2023-02-05T20:56:51.159Z,97.10
2023-02-05T20:59:18.999Z,96.87
2023-02-05T21:01:46.831Z,96.51
2023-02-05T21:04:14.770Z,95.61
2023-02-05T21:06:42.637Z,94.77
2023-02-05T21:09:11.525Z,95.04
2023-02-05T21:11:40.478Z,94.33
2023-02-05T21:14:10.412Z,93.73
2023-02-05T21:16:40.024Z,93.32
2023-02-05T21:19:09.187Z,94.17
2023-02-05T21:21:40.873Z,94.46
2023-02-05T21:24:12.511Z,94.06
2023-02-05T21:26:42.168Z,93.08
2023-02-05T21:29:13.938Z,94.44
2023-02-05T21:31:44.939Z,94.00
2023-02-05T21:34:15.144Z,95.42
2023-02-05T21:36:43.012Z,95.02
2023-02-05T21:39:11.965Z,95.19
2023-02-05T21:41:40.198Z,96.24
2023-02-05T21:44:07.979Z,96.16
2023-02-05T21:46:37.394Z,96.86
2023-02-05T21:49:05.466Z,96.88
2023-02-05T21:51:36.452Z,96.43
2023-02-05T21:54:06.761Z,97.01
2023-02-05T21:56:38.604Z,96.77
2023-02-05T21:59:06.817Z,95.59
2023-02-05T22:01:37.484Z,95.96
2023-02-05T22:04:10.041Z,96.06
2023-02-05T22:06:38.253Z,95.54
2023-02-05T22:09:07.761Z,97.03
2023-02-05T22:11:36.049Z,95.90
2023-02-05T22:14:03.835Z,95.37
2023-02-05T22:16:33.746Z,95.84
2023-02-05T22:19:04.116Z,95.76
2023-02-05T22:21:33.692Z,95.41
2023-02-05T22:24:03.389Z,93.93
2023-02-05T22:26:33.722Z,93.16
2023-02-05T22:29:03.152Z,92.58
2023-02-05T22:31:31.679Z,92.46
2023-02-05T22:33:59.997Z,91.49
2023-02-05T22:36:30.293Z,90.75
2023-02-05T22:38:58.773Z,91.16
2023-02-05T22:41:28.773Z,90.76
2023-02-05T22:43:57.685Z,90.70
2023-02-05T22:46:27.493Z,92.76
2023-02-05T22:48:55.947Z,91.93
2023-02-05T22:51:25.408Z,92.62
2023-02-05T22:53:55.110Z,93.92
2023-02-05T22:56:23.239Z,94.84
2023-02-05T22:58:52.281Z,94.54
2023-02-05T23:01:22.252Z,94.38
2023-02-05T23:03:51.941Z,95.63
2023-02-05T23:06:21.647Z,95.26
2023-02-05T23:08:52.288Z,96.04
2023-02-05T23:11:22.229Z,96.61
2023-02-05T23:13:50.611Z,95.95
2023-02-05T23:16:20.973Z,97.33
2023-02-05T23:18:49.166Z,96.90
2023-02-05T23:21:19.359Z,98.09
2023-02-05T23:23:47.628Z,97.63
2023-02-05T23:26:19.052Z,97.93
2023-02-05T23:28:48.691Z,98.58
2023-02-05T23:31:17.167Z,98.40
2023-02-05T23:33:45.155Z,97.66
2023-02-05T23:36:13.439Z,96.68
2023-02-05T23:38:41.323Z,98.77
2023-02-05T23:41:09.940Z,98.75
2023-02-05T23:43:40.298Z,99.42
2023-02-05T23:46:09.495Z,98.22
2023-02-05T23:48:37.266Z,99.15
2023-02-05T23:51:04.986Z,98.24
2023-02-05T23:53:32.793Z,99.40
2023-02-05T23:56:01.670Z,99.65
2023-02-05T23:58:29.555Z,99.57
